Silver Peak Trail, Santa Catalina Island Weather observations

Data are for 10 minute period ending at time listed.
 Day   Time   Solar   Ave.   Ave.  Ave.  Vector    Max.   Stn.    Total
  of    of     Rad.   Air    Rel.  Wind   Wind     Wind   Baro.  Precip.
Year   Day            Temp.  Hum.  Speed  Dir.     Gust   Pres.         
2016   (PST)   W/m2    F      %     mph   deg.      mph    mb.     in.  
------------------------------------------------------------------------
 176    2:30    0.0    75   36.1     7     19.2     8.4    999.0   0.00  
 176    2:40    0.0    73   39.1     5     18.2     6.6    999.0   0.00  
 176    2:50    0.0    73   39.6     4     17.3     6.6    999.0   0.00  
 176    3:00    0.0    72   41.2     5     17.1     7.8    999.0   0.00  
 176    3:10    0.0    72   41.3     4     17.2     5.4    999.0   0.00  
 176    3:20    0.0    72   40.7     5     17.8     6.0    999.0   0.00  
 176    3:30    0.0    73   40.3     6     18.5     6.6    999.0   0.00  
 176    3:40    0.0    73   38.0     6     19.0     7.2    999.0   0.00  
 176    3:50    0.0    72   40.2     6     18.6     7.2    999.0   0.00  
 176    4:00    0.0    71   45.0     4     17.7     6.6    999.0   0.00  
 176    4:10    0.0    68   56.7     5     17.2     6.0    999.0   0.00  
 176    4:20    0.0    69   50.0     5     17.2     6.0    999.0   0.00  
 176    4:30    0.0    71   42.5     6     18.5     7.8    999.0   0.00  
 176    4:40    1.0    72   41.1     8     34.3     9.6    999.0   0.00  
 176    4:50    3.0    72   41.3     7     44.0     8.4    999.0   0.00  
 176    5:00   14.0    72   42.1     6     42.5     7.8    999.0   0.00  
 176    5:10   37.0    72   42.9     6     39.9     7.8    999.0   0.00  
 176    5:20   61.0    72   43.9     6     20.3     7.2    999.0   0.00  
 176    5:30   87.0    72   45.2     7     18.8     7.8    999.0   0.00  
 176    5:40  116.0    72   43.8     6     18.6     7.8    999.0   0.00  
 176    5:50  146.0    72   42.8     5     17.5     6.6    999.0   0.00  
 176    6:00  177.0    72   44.9     6     17.9     7.2    999.0   0.00  
 176    6:10  209.0    73   43.3     5     17.2     6.0    999.0   0.00  
 176    6:20  243.0    72   50.9     4     16.9     6.0    999.0   0.00  
 176    6:30  277.0    70   54.1     4     16.8     6.0    999.0   0.00  
 176    6:40  312.0    69   61.1     2     15.6     4.8    999.0   0.00  
 176    6:50  347.0    74   48.9     2     14.0     4.2    999.0   0.00  
 176    7:00  383.0    73   59.0     2      4.8     4.2    999.0   0.00  
 176    7:10  413.0    65   78.4     3    352.7     4.8    999.0   0.00  
 176    7:20  437.0    66   77.6     2    346.8     6.0    999.0   0.00  
 176    7:30  531.0    64   81.2     3    346.9     4.8    999.0   0.00  
 176    7:40  503.0    66   79.3     2    347.0     4.2    999.0   0.00  
 176    7:50  508.0    65   79.3     3    347.2     7.8    999.0   0.00  
 176    8:00  541.0    63   83.1     5    347.4     7.8    999.0   0.00  
 176    8:10  628.0    66   80.8     4    335.3     6.6    999.0   0.00  
 176    8:20  658.0    66   78.9     4    331.5     5.4    999.0   0.00  
 176    8:30  673.0    66   79.2     4    328.4     7.2    999.0   0.00  
 176    8:40  697.0    64   82.7     3    326.4     7.2    999.0   0.00  
 176    8:50  744.0    68   75.1     4    328.7     7.8    999.0   0.00  
 176    9:00  736.0    65   80.3     4    318.8     6.6    999.0   0.00  
 176    9:10  792.0    67   78.8     3    320.5     6.6    999.0   0.00  
 176    9:20  812.0    66   80.1     4    316.8     7.8    999.0   0.00  
 176    9:30  836.0    68   76.1     4    321.0     6.6    999.0   0.00  
 176    9:40  857.0    69   74.0     5    320.4     7.2    999.0   0.00  
 176    9:50  878.0    68   75.4     5    311.7     9.0    999.0   0.00  
 176   10:00  898.0    67   77.2     5    296.5     9.0    999.0   0.00  
 176   10:10  916.0    66   78.3     6    296.4     9.6    999.0   0.00  
 176   10:20  935.0    69   74.0     4    319.7     6.6    999.0   0.00  
 176   10:30  952.0    70   71.8     5    307.6    11.3    999.0   0.00  
 176   10:40  964.0    66   77.7     5    302.0     9.0    999.0   0.00  
 176   10:50  979.0    68   74.1     4    313.6     7.8    999.0   0.00  
 176   11:00  991.0    69   73.7     5    328.4     7.8    999.0   0.00  
 176   11:10  1002.0    70   71.5     5    325.5     8.4    999.0   0.00  
 176   11:20  1009.0    69   72.8     5    299.0     9.0    999.0   0.00  
 176   11:30  1015.0    69   73.2     5    306.1     9.6    999.0   0.00  
 176   11:40  1022.0    69   73.1     3    330.5     6.0    999.0   0.00  
 176   11:50  1025.0    71   69.7     4    331.8     7.2    999.0   0.00  
 176   12:00  1027.0    70   71.6     4    324.7     9.0    999.0   0.00  
 176   12:10  1025.0    69   71.9     4    329.5     7.2    999.0   0.00  
 176   12:20  1025.0    70   71.9     4    333.1     7.2    999.0   0.00  
 176   12:30  1019.0    70   71.7     4    331.5     6.6    999.0   0.00  
 176   12:40  1014.0    70   70.9     4    343.8     8.4    999.0   0.00  
 176   12:50  1006.0    71   69.6     5    343.1    11.3    999.0   0.00  
 176   13:00  996.0    71   69.6     3    345.8     5.4    999.0   0.00  
 176   13:10  987.0    72   67.5     3    347.3     8.4    999.0   0.00  
 176   13:20  973.0    71   68.7     4    355.6     9.0    999.0   0.00  
 176   13:30  959.0    71   69.8     4    355.8     7.8    999.0   0.00  
 176   13:40  943.0    70   71.0     6      1.2     9.0    999.0   0.00  
 176   13:50  925.0    72   68.6     4      1.2     8.4    999.0   0.00  
 176   14:00  909.0    71   69.9     5      1.2     7.2    999.0   0.00  
 176   14:10  888.0    71   70.5     5      1.5    10.2    999.0   0.00  
 176   14:20  867.0    72   68.0     5      2.4     9.6    999.0   0.00  
 176   14:30  834.0    72   68.5     8      7.7    10.8    999.0   0.00  
 176   14:40  792.0    71   70.3     7      5.4    11.3    999.0   0.00  
 176   14:50  803.0    70   70.6     6      3.7    10.8    999.0   0.00  
 176   15:00  765.0    70   70.6     6      5.2     9.6    999.0   0.00  
 176   15:10  744.0    70   71.2     8     11.3    12.5    999.0   0.00  
 176   15:20  711.0    68   74.2     7      9.7    13.7    999.0   0.00  
 176   15:30  688.0    68   73.3     8      5.8    12.5    999.0   0.00  
 176   15:40  657.0    67   75.9     8     12.1    12.5    999.0   0.00  
 176   15:50  568.0    66   77.7    10     13.2    13.7    999.0   0.00  
 176   16:00  591.0    66   77.8     8      8.8    13.1    999.0   0.00  
 176   16:10  567.0    67   76.1     4      1.7     7.8    999.0   0.00  
 176   16:20  533.0    69   70.9     4      5.9    10.8    999.0   0.00  
 176   16:30  500.0    69   71.9     4     17.0     7.2    999.0   0.00  
 176   16:40  467.0    68   74.4     4     15.5     6.6    999.0   0.00  
 176   16:50  434.0    67   75.9     4     15.1     7.8    999.0   0.00  
 176   17:00  400.0    68   74.4     4     12.9     6.0    999.0   0.00  
 176   17:10  366.0    66   78.3     5     10.7     6.6    999.0   0.00  
 176   17:20  333.0    65   80.9     4    356.9     8.4    999.0   0.00  
 176   17:30  300.0    65   81.0     5    348.5     7.2    999.0   0.00  
 176   17:40  268.0    65   79.6     6    359.6     8.4    999.0   0.00  
 176   17:50  235.0    65   74.2     7     42.1     9.6    999.0   0.00  
 176   18:00  204.0    66   74.0     5     22.7     7.2    999.0   0.00  
 176   18:10  173.0    65   78.5     4     17.8     7.8    999.0   0.00  
 176   18:20  144.0    63   84.4     4     17.2     5.4    999.0   0.00  
 176   18:30  116.0    61   87.8     5     17.8     7.2    999.0   0.00  
 176   18:40   89.0    61   88.2     4     17.5     7.2    999.0   0.00  
 176   18:50   63.0    60   89.9     6     17.4     9.0    999.0   0.00  
 176   19:00   39.0    60   90.5     4     14.4     7.8    999.0   0.00  
 176   19:10   18.0    59   91.2     5    328.9     6.6    999.0   0.00  
 176   19:20    4.0    59   92.7     7    313.9     7.8    999.0   0.00  
 176   19:30    1.0    59   93.0     8    300.0     9.6    999.0   0.00  
 176   19:40    0.0    58   93.6     8    284.2    10.8    999.0   0.00  
 176   19:50    0.0    58   94.2     8    285.9    11.3    999.0   0.00  
 176   20:00    0.0    58   94.7    10    249.6    12.5    999.0   0.00  
 176   20:10    0.0    58   95.0     8    280.8     9.6    999.0   0.00  
 176   20:20    0.0    58   95.2     8    283.3    11.3    999.0   0.00  
 176   20:30    0.0    58   95.3     7    288.8    10.2    999.0   0.00  
 176   20:40    0.0    58   94.9    10    281.9    11.9    999.0   0.00  
 176   20:50    0.0    62   85.8    10    274.0    11.9    999.0   0.00  
 176   21:00    0.0    64   75.8     9    282.4    11.3    999.0   0.00  
 176   21:10    0.0    64   75.3     8    295.8    10.8    999.0   0.00  
 176   21:20    0.0    64   76.1     8    286.9    10.8    999.0   0.00  
 176   21:30    0.0    65   74.3     7    298.0     9.0    999.0   0.00  
 176   21:40    0.0    66   71.6     5    300.8     6.0    999.0   0.00  
 176   21:50    0.0    67   65.7     5    323.5     7.2    999.0   0.00  
 176   22:00    0.0    67   64.0     4    323.2     6.0    999.0   0.00  
 176   22:10    0.0    67   64.8     4    323.1     5.4    999.0   0.00  
 176   22:20    0.0    66   67.4     3    323.0     5.4    999.0   0.00  
 176   22:30    0.0    64   73.6     3    322.9     5.4    999.0   0.00  
 176   22:40    0.0    65   70.1     4    323.0     6.0    999.0   0.00  
 176   22:50    0.0    68   57.1     6    322.6     7.2    999.0   0.00  
 176   23:00    0.0    69   54.0     6    322.0     7.8    999.0   0.00  
 176   23:10    0.0    65   70.6     6    314.4     8.4    999.0   0.00  
 176   23:20    0.0    66   62.3     5    317.8     6.6    999.0   0.00  
 176   23:30    0.0    69   50.9     4    321.9     6.0    999.0   0.00  
 176   23:40    0.0    69   52.0     4    322.6     5.4    999.0   0.00  
 176   23:50    0.0    65   65.6     4    320.4     7.8    999.0   0.00  
 177    0:00    0.0    62   75.1     4    319.9     6.0    999.0   0.00  
 177    0:10    0.0    63   71.7     6    319.1     8.4    999.0   0.00  
 177    0:20    0.0    59   85.6     2    320.6     4.8    999.0   0.00  
 177    0:30    0.0    64   67.3     3    321.8     4.8    999.0   0.00  
 177    0:40    0.0    59   84.6     5    318.9     7.8    999.0   0.00  
 177    0:50    0.0    59   85.8     4    319.2     7.8    999.0   0.00  
 177    1:00    0.0    60   81.7     4    314.5     7.2    999.0   0.00  
 177    1:10    0.0    60   82.8     5    315.2     7.8    999.0   0.00  
 177    1:20    0.0    66   60.7     2    316.9     3.6    999.0   0.00  
 177    1:30    0.0    68   53.9     2    318.0     3.6    999.0   0.00  
 177    1:40    0.0    66   58.8     1    321.3     6.0    999.0   0.00  
 177    1:50    0.0    68   49.5     3    322.4     5.4    999.0   0.00  
 177    2:00    0.0    70   45.7     3    321.6     7.8    999.0   0.00  
 177    2:10    0.0    70   46.5     3    319.6     6.0    999.0   0.00  
 177    2:20    0.0    71   44.6     3    319.7     6.0    999.0   0.00  

Return to Silver Peak Trail graphs page.


Western Regional Climate Center,wrcc@dri.edu